sensor_id;sensor_type;location;lat;lon;timestamp;P1;durP1;ratioP1;P2;durP2;ratioP2
66970;SDS011;53901;51.466;-2.588;2023-04-01T00:01:56;20.77;;;5.25;;
66970;SDS011;53901;51.466;-2.588;2023-04-01T00:04:21;23.40;;;6.07;;
66970;SDS011;53901;51.466;-2.588;2023-04-01T00:06:46;16.33;;;5.28;;
66970;SDS011;53901;51.466;-2.588;2023-04-01T00:09:12;22.23;;;5.75;;
66970;SDS011;53901;51.466;-2.588;2023-04-01T00:11:38;21.73;;;6.28;;
66970;SDS011;53901;51.466;-2.588;2023-04-01T00:14:04;27.17;;;5.75;;
66970;SDS011;53901;51.466;-2.588;2023-04-01T00:16:30;18.55;;;5.72;;
66970;SDS011;53901;51.466;-2.588;2023-04-01T00:18:56;24.13;;;6.20;;
66970;SDS011;53901;51.466;-2.588;2023-04-01T00:21:21;28.17;;;6.63;;
66970;SDS011;53901;51.466;-2.588;2023-04-01T00:23:47;26.60;;;6.07;;
66970;SDS011;53901;51.466;-2.588;2023-04-01T00:26:13;29.25;;;7.43;;
66970;SDS011;53901;51.466;-2.588;2023-04-01T00:28:42;25.52;;;7.30;;
66970;SDS011;53901;51.466;-2.588;2023-04-01T00:31:08;37.85;;;7.88;;
66970;SDS011;53901;51.466;-2.588;2023-04-01T00:33:34;22.35;;;6.60;;
66970;SDS011;53901;51.466;-2.588;2023-04-01T00:38:36;28.05;;;7.05;;
66970;SDS011;53901;51.466;-2.588;2023-04-01T00:41:02;29.38;;;6.75;;
66970;SDS011;53901;51.466;-2.588;2023-04-01T00:43:27;18.02;;;5.32;;
66970;SDS011;53901;51.466;-2.588;2023-04-01T00:45:53;22.65;;;6.05;;
66970;SDS011;53901;51.466;-2.588;2023-04-01T00:48:19;22.85;;;6.32;;
66970;SDS011;53901;51.466;-2.588;2023-04-01T00:51:48;18.95;;;5.57;;
66970;SDS011;53901;51.466;-2.588;2023-04-01T00:53:50;23.80;;;5.20;;
66970;SDS011;53901;51.466;-2.588;2023-04-01T00:56:27;22.60;;;5.70;;
66970;SDS011;53901;51.466;-2.588;2023-04-01T00:59:00;18.08;;;6.00;;
66970;SDS011;53901;51.466;-2.588;2023-04-01T01:01:27;27.15;;;7.28;;
66970;SDS011;53901;51.466;-2.588;2023-04-01T01:03:54;18.65;;;6.00;;
66970;SDS011;53901;51.466;-2.588;2023-04-01T01:06:54;20.40;;;6.80;;
66970;SDS011;53901;51.466;-2.588;2023-04-01T01:14:54;20.63;;;7.13;;
66970;SDS011;53901;51.466;-2.588;2023-04-01T01:25:54;24.52;;;9.13;;
66970;SDS011;53901;51.466;-2.588;2023-04-01T01:31:23;17.98;;;7.82;;
66970;SDS011;53901;51.466;-2.588;2023-04-01T01:36:48;22.15;;;6.55;;
66970;SDS011;53901;51.466;-2.588;2023-04-01T01:39:16;18.13;;;7.38;;
66970;SDS011;53901;51.466;-2.588;2023-04-01T01:41:42;19.50;;;6.88;;
66970;SDS011;53901;51.466;-2.588;2023-04-01T01:44:08;18.27;;;6.93;;
66970;SDS011;53901;51.466;-2.588;2023-04-01T01:46:36;15.13;;;6.35;;
66970;SDS011;53901;51.466;-2.588;2023-04-01T01:49:03;17.90;;;6.72;;
66970;SDS011;53901;51.466;-2.588;2023-04-01T01:51:30;15.13;;;6.50;;
66970;SDS011;53901;51.466;-2.588;2023-04-01T01:53:55;20.52;;;7.40;;
66970;SDS011;53901;51.466;-2.588;2023-04-01T01:56:21;25.40;;;8.35;;
66970;SDS011;53901;51.466;-2.588;2023-04-01T01:58:50;19.90;;;7.50;;
66970;SDS011;53901;51.466;-2.588;2023-04-01T02:01:19;24.80;;;7.70;;
66970;SDS011;53901;51.466;-2.588;2023-04-01T02:03:47;28.90;;;8.55;;
66970;SDS011;53901;51.466;-2.588;2023-04-01T02:06:14;22.23;;;7.78;;
66970;SDS011;53901;51.466;-2.588;2023-04-01T02:11:26;26.30;;;8.82;;
66970;SDS011;53901;51.466;-2.588;2023-04-01T02:13:55;25.48;;;9.05;;
66970;SDS011;53901;51.466;-2.588;2023-04-01T02:16:34;26.25;;;8.23;;
66970;SDS011;53901;51.466;-2.588;2023-04-01T02:19:02;23.60;;;8.15;;
66970;SDS011;53901;51.466;-2.588;2023-04-01T02:21:32;22.60;;;8.82;;
66970;SDS011;53901;51.466;-2.588;2023-04-01T02:23:58;26.95;;;7.82;;
66970;SDS011;53901;51.466;-2.588;2023-04-01T02:26:26;22.85;;;7.60;;
66970;SDS011;53901;51.466;-2.588;2023-04-01T02:28:52;26.55;;;7.90;;
66970;SDS011;53901;51.466;-2.588;2023-04-01T02:31:19;29.52;;;8.15;;
66970;SDS011;53901;51.466;-2.588;2023-04-01T02:33:45;21.98;;;7.68;;
66970;SDS011;53901;51.466;-2.588;2023-04-01T02:36:12;21.98;;;7.03;;
66970;SDS011;53901;51.466;-2.588;2023-04-01T02:38:38;30.45;;;8.05;;
66970;SDS011;53901;51.466;-2.588;2023-04-01T02:41:04;23.42;;;8.10;;
66970;SDS011;53901;51.466;-2.588;2023-04-01T02:43:31;25.10;;;7.30;;
66970;SDS011;53901;51.466;-2.588;2023-04-01T02:45:57;18.08;;;7.70;;
66970;SDS011;53901;51.466;-2.588;2023-04-01T02:48:22;21.08;;;7.20;;
66970;SDS011;53901;51.466;-2.588;2023-04-01T02:50:48;22.15;;;7.75;;
66970;SDS011;53901;51.466;-2.588;2023-04-01T02:53:14;19.40;;;6.75;;
66970;SDS011;53901;51.466;-2.588;2023-04-01T02:55:40;25.65;;;7.18;;
66970;SDS011;53901;51.466;-2.588;2023-04-01T02:58:05;21.27;;;6.72;;
66970;SDS011;53901;51.466;-2.588;2023-04-01T03:00:31;16.80;;;6.25;;
66970;SDS011;53901;51.466;-2.588;2023-04-01T03:02:56;15.90;;;5.90;;
66970;SDS011;53901;51.466;-2.588;2023-04-01T03:05:22;17.67;;;5.38;;
66970;SDS011;53901;51.466;-2.588;2023-04-01T03:07:47;16.33;;;5.38;;
66970;SDS011;53901;51.466;-2.588;2023-04-01T03:10:13;15.63;;;5.15;;
66970;SDS011;53901;51.466;-2.588;2023-04-01T03:12:38;22.38;;;4.75;;
66970;SDS011;53901;51.466;-2.588;2023-04-01T03:15:04;15.73;;;4.88;;
66970;SDS011;53901;51.466;-2.588;2023-04-01T03:17:30;15.10;;;5.68;;
66970;SDS011;53901;51.466;-2.588;2023-04-01T03:19:55;14.35;;;4.97;;
66970;SDS011;53901;51.466;-2.588;2023-04-01T03:22:21;18.33;;;5.03;;
66970;SDS011;53901;51.466;-2.588;2023-04-01T03:24:46;16.55;;;6.53;;
66970;SDS011;53901;51.466;-2.588;2023-04-01T03:27:13;22.25;;;5.32;;
66970;SDS011;53901;51.466;-2.588;2023-04-01T03:29:38;16.88;;;4.82;;
66970;SDS011;53901;51.466;-2.588;2023-04-01T03:32:04;19.92;;;5.65;;
66970;SDS011;53901;51.466;-2.588;2023-04-01T03:34:29;16.05;;;7.07;;
66970;SDS011;53901;51.466;-2.588;2023-04-01T03:36:55;19.23;;;6.28;;
66970;SDS011;53901;51.466;-2.588;2023-04-01T03:39:21;16.67;;;5.75;;
66970;SDS011;53901;51.466;-2.588;2023-04-01T03:41:47;21.40;;;6.07;;
66970;SDS011;53901;51.466;-2.588;2023-04-01T03:44:12;20.30;;;6.70;;
66970;SDS011;53901;51.466;-2.588;2023-04-01T03:46:38;20.02;;;6.85;;
66970;SDS011;53901;51.466;-2.588;2023-04-01T03:49:06;20.25;;;6.03;;
66970;SDS011;53901;51.466;-2.588;2023-04-01T03:51:36;14.85;;;5.28;;
66970;SDS011;53901;51.466;-2.588;2023-04-01T03:54:03;18.40;;;5.65;;
66970;SDS011;53901;51.466;-2.588;2023-04-01T03:56:28;24.02;;;5.97;;
66970;SDS011;53901;51.466;-2.588;2023-04-01T03:58:53;17.17;;;6.68;;
66970;SDS011;53901;51.466;-2.588;2023-04-01T04:01:19;19.45;;;6.03;;
66970;SDS011;53901;51.466;-2.588;2023-04-01T04:03:46;20.17;;;6.05;;
66970;SDS011;53901;51.466;-2.588;2023-04-01T04:06:13;16.10;;;5.90;;
66970;SDS011;53901;51.466;-2.588;2023-04-01T04:08:39;19.20;;;5.95;;
66970;SDS011;53901;51.466;-2.588;2023-04-01T04:11:05;20.48;;;5.28;;
66970;SDS011;53901;51.466;-2.588;2023-04-01T04:13:30;20.73;;;4.95;;
66970;SDS011;53901;51.466;-2.588;2023-04-01T04:15:55;19.42;;;6.35;;
66970;SDS011;53901;51.466;-2.588;2023-04-01T04:18:21;14.15;;;5.15;;
66970;SDS011;53901;51.466;-2.588;2023-04-01T04:20:46;20.05;;;5.10;;
66970;SDS011;53901;51.466;-2.588;2023-04-01T04:23:15;15.20;;;4.47;;
66970;SDS011;53901;51.466;-2.588;2023-04-01T04:25:40;18.10;;;5.38;;
66970;SDS011;53901;51.466;-2.588;2023-04-01T04:28:06;17.23;;;5.18;;
66970;SDS011;53901;51.466;-2.588;2023-04-01T04:30:31;17.60;;;4.65;;
66970;SDS011;53901;51.466;-2.588;2023-04-01T04:32:56;13.75;;;4.07;;
66970;SDS011;53901;51.466;-2.588;2023-04-01T04:35:22;14.25;;;4.50;;
66970;SDS011;53901;51.466;-2.588;2023-04-01T04:37:47;14.13;;;4.03;;
66970;SDS011;53901;51.466;-2.588;2023-04-01T04:40:13;13.98;;;4.72;;
66970;SDS011;53901;51.466;-2.588;2023-04-01T04:42:38;11.73;;;4.60;;
66970;SDS011;53901;51.466;-2.588;2023-04-01T04:45:04;13.05;;;4.22;;
66970;SDS011;53901;51.466;-2.588;2023-04-01T04:47:30;12.35;;;4.57;;
66970;SDS011;53901;51.466;-2.588;2023-04-01T04:49:56;14.48;;;4.20;;
66970;SDS011;53901;51.466;-2.588;2023-04-01T04:52:21;13.15;;;4.70;;
66970;SDS011;53901;51.466;-2.588;2023-04-01T04:54:46;16.73;;;5.45;;
66970;SDS011;53901;51.466;-2.588;2023-04-01T04:57:12;16.63;;;4.78;;
66970;SDS011;53901;51.466;-2.588;2023-04-01T04:59:37;18.20;;;5.55;;
66970;SDS011;53901;51.466;-2.588;2023-04-01T05:02:02;14.20;;;5.10;;
66970;SDS011;53901;51.466;-2.588;2023-04-01T05:04:28;15.23;;;5.22;;
66970;SDS011;53901;51.466;-2.588;2023-04-01T05:06:53;11.63;;;4.50;;
66970;SDS011;53901;51.466;-2.588;2023-04-01T05:09:18;8.63;;;3.60;;
66970;SDS011;53901;51.466;-2.588;2023-04-01T05:11:44;14.55;;;4.95;;
66970;SDS011;53901;51.466;-2.588;2023-04-01T05:14:14;23.83;;;5.45;;
66970;SDS011;53901;51.466;-2.588;2023-04-01T05:16:40;13.73;;;4.75;;
66970;SDS011;53901;51.466;-2.588;2023-04-01T05:19:05;18.33;;;5.88;;
66970;SDS011;53901;51.466;-2.588;2023-04-01T05:21:31;13.43;;;5.47;;
66970;SDS011;53901;51.466;-2.588;2023-04-01T05:23:56;14.23;;;5.40;;
66970;SDS011;53901;51.466;-2.588;2023-04-01T05:26:22;19.58;;;6.15;;
66970;SDS011;53901;51.466;-2.588;2023-04-01T05:28:47;17.88;;;6.30;;
66970;SDS011;53901;51.466;-2.588;2023-04-01T05:31:12;17.83;;;5.97;;
66970;SDS011;53901;51.466;-2.588;2023-04-01T05:33:38;15.68;;;6.53;;
66970;SDS011;53901;51.466;-2.588;2023-04-01T05:36:07;12.82;;;5.40;;
66970;SDS011;53901;51.466;-2.588;2023-04-01T05:38:37;11.63;;;4.68;;
66970;SDS011;53901;51.466;-2.588;2023-04-01T05:41:02;17.50;;;5.60;;
66970;SDS011;53901;51.466;-2.588;2023-04-01T05:43:28;17.15;;;5.43;;
66970;SDS011;53901;51.466;-2.588;2023-04-01T05:45:55;10.68;;;4.82;;
66970;SDS011;53901;51.466;-2.588;2023-04-01T05:48:20;10.60;;;4.10;;
66970;SDS011;53901;51.466;-2.588;2023-04-01T05:50:46;14.70;;;5.22;;
66970;SDS011;53901;51.466;-2.588;2023-04-01T05:53:11;14.30;;;5.65;;
66970;SDS011;53901;51.466;-2.588;2023-04-01T05:55:39;17.60;;;5.70;;
66970;SDS011;53901;51.466;-2.588;2023-04-01T05:58:04;15.63;;;5.10;;
66970;SDS011;53901;51.466;-2.588;2023-04-01T06:00:30;13.23;;;5.00;;
66970;SDS011;53901;51.466;-2.588;2023-04-01T06:02:57;17.30;;;4.88;;
66970;SDS011;53901;51.466;-2.588;2023-04-01T06:05:24;14.43;;;5.53;;
66970;SDS011;53901;51.466;-2.588;2023-04-01T06:07:55;15.32;;;5.35;;
66970;SDS011;53901;51.466;-2.588;2023-04-01T06:10:24;15.85;;;5.32;;
66970;SDS011;53901;51.466;-2.588;2023-04-01T06:13:06;18.58;;;6.10;;
66970;SDS011;53901;51.466;-2.588;2023-04-01T06:26:52;19.88;;;5.65;;
66970;SDS011;53901;51.466;-2.588;2023-04-01T06:29:41;25.20;;;6.38;;
66970;SDS011;53901;51.466;-2.588;2023-04-01T06:45:51;17.90;;;5.75;;
66970;SDS011;53901;51.466;-2.588;2023-04-01T06:56:19;19.55;;;5.40;;
66970;SDS011;53901;51.466;-2.588;2023-04-01T07:01:20;24.05;;;6.53;;
66970;SDS011;53901;51.466;-2.588;2023-04-01T07:09:10;23.55;;;6.82;;
66970;SDS011;53901;51.466;-2.588;2023-04-01T07:11:40;22.92;;;6.93;;
66970;SDS011;53901;51.466;-2.588;2023-04-01T07:16:39;20.52;;;5.70;;
66970;SDS011;53901;51.466;-2.588;2023-04-01T07:21:38;20.02;;;6.13;;
66970;SDS011;53901;51.466;-2.588;2023-04-01T07:24:06;30.48;;;6.30;;
66970;SDS011;53901;51.466;-2.588;2023-04-01T07:26:37;20.65;;;5.47;;
66970;SDS011;53901;51.466;-2.588;2023-04-01T07:29:05;21.65;;;5.50;;
66970;SDS011;53901;51.466;-2.588;2023-04-01T07:31:39;17.40;;;5.28;;
66970;SDS011;53901;51.466;-2.588;2023-04-01T07:36:38;25.00;;;6.63;;
66970;SDS011;53901;51.466;-2.588;2023-04-01T07:57:57;16.58;;;6.00;;
66970;SDS011;53901;51.466;-2.588;2023-04-01T08:03:03;15.23;;;5.47;;
66970;SDS011;53901;51.466;-2.588;2023-04-01T08:22:32;7.70;;;3.33;;
66970;SDS011;53901;51.466;-2.588;2023-04-01T08:25:00;7.75;;;2.70;;
66970;SDS011;53901;51.466;-2.588;2023-04-01T08:27:38;6.47;;;1.73;;
66970;SDS011;53901;51.466;-2.588;2023-04-01T08:30:26;3.17;;;1.30;;
66970;SDS011;53901;51.466;-2.588;2023-04-01T08:33:02;3.58;;;1.38;;
66970;SDS011;53901;51.466;-2.588;2023-04-01T08:56:02;2.38;;;1.10;;
66970;SDS011;53901;51.466;-2.588;2023-04-01T09:10:00;5.90;;;1.20;;
66970;SDS011;53901;51.466;-2.588;2023-04-01T09:12:54;1.20;;;0.80;;
66970;SDS011;53901;51.466;-2.588;2023-04-01T09:37:27;2.22;;;0.77;;
66970;SDS011;53901;51.466;-2.588;2023-04-01T09:45:44;1.45;;;0.60;;
66970;SDS011;53901;51.466;-2.588;2023-04-01T09:48:33;0.52;;;0.50;;
66970;SDS011;53901;51.466;-2.588;2023-04-01T09:51:22;0.80;;;0.50;;
66970;SDS011;53901;51.466;-2.588;2023-04-01T09:53:52;1.02;;;0.60;;
66970;SDS011;53901;51.466;-2.588;2023-04-01T09:56:31;1.00;;;0.57;;
66970;SDS011;53901;51.466;-2.588;2023-04-01T10:11:22;7.20;;;2.65;;
66970;SDS011;53901;51.466;-2.588;2023-04-01T10:16:53;2.03;;;0.98;;
66970;SDS011;53901;51.466;-2.588;2023-04-01T10:28:08;7.82;;;4.10;;
66970;SDS011;53901;51.466;-2.588;2023-04-01T11:01:59;11.68;;;5.40;;
66970;SDS011;53901;51.466;-2.588;2023-04-01T11:10:25;8.68;;;4.88;;
66970;SDS011;53901;51.466;-2.588;2023-04-01T11:16:07;6.57;;;4.55;;
66970;SDS011;53901;51.466;-2.588;2023-04-01T11:24:34;6.25;;;4.25;;
66970;SDS011;53901;51.466;-2.588;2023-04-01T11:27:34;6.60;;;4.57;;
66970;SDS011;53901;51.466;-2.588;2023-04-01T11:33:12;7.85;;;5.43;;
66970;SDS011;53901;51.466;-2.588;2023-04-01T11:46:07;12.52;;;6.45;;
66970;SDS011;53901;51.466;-2.588;2023-04-01T12:04:47;12.75;;;7.82;;
66970;SDS011;53901;51.466;-2.588;2023-04-01T12:09:59;16.10;;;9.32;;
66970;SDS011;53901;51.466;-2.588;2023-04-01T12:18:13;17.42;;;9.50;;
66970;SDS011;53901;51.466;-2.588;2023-04-01T12:24:25;16.95;;;9.05;;
66970;SDS011;53901;51.466;-2.588;2023-04-01T12:45:30;15.00;;;7.22;;
66970;SDS011;53901;51.466;-2.588;2023-04-01T13:02:01;7.20;;;5.32;;
66970;SDS011;53901;51.466;-2.588;2023-04-01T13:10:35;12.23;;;6.20;;
66970;SDS011;53901;51.466;-2.588;2023-04-01T13:13:16;9.05;;;5.60;;
66970;SDS011;53901;51.466;-2.588;2023-04-01T13:15:52;9.32;;;5.90;;
66970;SDS011;53901;51.466;-2.588;2023-04-01T13:23:52;8.77;;;5.60;;
66970;SDS011;53901;51.466;-2.588;2023-04-01T13:26:24;8.23;;;5.20;;
66970;SDS011;53901;51.466;-2.588;2023-04-01T13:38:08;8.20;;;4.88;;
66970;SDS011;53901;51.466;-2.588;2023-04-01T13:43:10;8.82;;;4.75;;
66970;SDS011;53901;51.466;-2.588;2023-04-01T13:46:05;7.32;;;4.38;;
66970;SDS011;53901;51.466;-2.588;2023-04-01T13:56:40;6.47;;;4.35;;
66970;SDS011;53901;51.466;-2.588;2023-04-01T14:01:42;7.70;;;4.43;;
66970;SDS011;53901;51.466;-2.588;2023-04-01T14:09:45;6.57;;;4.60;;
66970;SDS011;53901;51.466;-2.588;2023-04-01T14:12:47;7.63;;;4.30;;
66970;SDS011;53901;51.466;-2.588;2023-04-01T14:15:42;8.75;;;4.45;;
66970;SDS011;53901;51.466;-2.588;2023-04-01T14:21:23;7.97;;;4.25;;
66970;SDS011;53901;51.466;-2.588;2023-04-01T14:26:49;7.40;;;4.20;;
66970;SDS011;53901;51.466;-2.588;2023-04-01T14:29:39;8.15;;;4.10;;
66970;SDS011;53901;51.466;-2.588;2023-04-01T14:35:49;5.93;;;3.83;;
66970;SDS011;53901;51.466;-2.588;2023-04-01T14:38:54;8.93;;;3.80;;
66970;SDS011;53901;51.466;-2.588;2023-04-01T14:41:38;4.80;;;3.03;;
66970;SDS011;53901;51.466;-2.588;2023-04-01T14:55:31;4.07;;;2.85;;
66970;SDS011;53901;51.466;-2.588;2023-04-01T14:58:04;4.47;;;2.92;;
66970;SDS011;53901;51.466;-2.588;2023-04-01T15:00:41;3.05;;;1.90;;
66970;SDS011;53901;51.466;-2.588;2023-04-01T15:03:36;3.05;;;1.90;;
66970;SDS011;53901;51.466;-2.588;2023-04-01T15:06:28;2.75;;;2.08;;
66970;SDS011;53901;51.466;-2.588;2023-04-01T15:09:27;4.25;;;2.30;;
66970;SDS011;53901;51.466;-2.588;2023-04-01T15:15:03;3.67;;;1.80;;
66970;SDS011;53901;51.466;-2.588;2023-04-01T15:17:55;2.40;;;1.63;;
66970;SDS011;53901;51.466;-2.588;2023-04-01T15:34:13;2.83;;;1.60;;
66970;SDS011;53901;51.466;-2.588;2023-04-01T15:44:58;2.50;;;1.48;;
66970;SDS011;53901;51.466;-2.588;2023-04-01T15:47:32;3.53;;;1.40;;
66970;SDS011;53901;51.466;-2.588;2023-04-01T15:53:11;2.53;;;1.20;;
66970;SDS011;53901;51.466;-2.588;2023-04-01T16:00:48;2.67;;;1.33;;
66970;SDS011;53901;51.466;-2.588;2023-04-01T16:12:04;3.90;;;1.38;;
66970;SDS011;53901;51.466;-2.588;2023-04-01T16:17:23;3.05;;;1.20;;
66970;SDS011;53901;51.466;-2.588;2023-04-01T16:22:45;5.10;;;1.80;;
66970;SDS011;53901;51.466;-2.588;2023-04-01T16:28:19;2.95;;;1.27;;
66970;SDS011;53901;51.466;-2.588;2023-04-01T16:30:55;4.20;;;1.30;;
66970;SDS011;53901;51.466;-2.588;2023-04-01T16:44:32;2.70;;;1.70;;
66970;SDS011;53901;51.466;-2.588;2023-04-01T16:47:12;5.93;;;2.25;;
66970;SDS011;53901;51.466;-2.588;2023-04-01T16:49:46;3.95;;;2.45;;
66970;SDS011;53901;51.466;-2.588;2023-04-01T16:52:23;5.28;;;2.60;;
66970;SDS011;53901;51.466;-2.588;2023-04-01T16:55:17;3.75;;;2.40;;
66970;SDS011;53901;51.466;-2.588;2023-04-01T16:57:51;3.70;;;2.20;;
66970;SDS011;53901;51.466;-2.588;2023-04-01T17:00:26;3.92;;;2.00;;
66970;SDS011;53901;51.466;-2.588;2023-04-01T17:13:51;7.30;;;2.28;;
66970;SDS011;53901;51.466;-2.588;2023-04-01T17:16:53;4.65;;;1.83;;
66970;SDS011;53901;51.466;-2.588;2023-04-01T17:19:37;2.92;;;2.13;;
66970;SDS011;53901;51.466;-2.588;2023-04-01T17:22:34;3.83;;;2.30;;
66970;SDS011;53901;51.466;-2.588;2023-04-01T17:28:12;3.28;;;2.20;;
66970;SDS011;53901;51.466;-2.588;2023-04-01T17:36:25;4.35;;;2.30;;
66970;SDS011;53901;51.466;-2.588;2023-04-01T17:52:39;4.40;;;2.17;;
66970;SDS011;53901;51.466;-2.588;2023-04-01T18:14:44;5.18;;;2.72;;
66970;SDS011;53901;51.466;-2.588;2023-04-01T18:22:28;4.03;;;2.00;;
66970;SDS011;53901;51.466;-2.588;2023-04-01T18:25:17;3.40;;;1.80;;
66970;SDS011;53901;51.466;-2.588;2023-04-01T18:27:48;3.92;;;2.17;;
66970;SDS011;53901;51.466;-2.588;2023-04-01T18:30:50;3.95;;;1.67;;
66970;SDS011;53901;51.466;-2.588;2023-04-01T18:33:16;5.50;;;2.20;;
66970;SDS011;53901;51.466;-2.588;2023-04-01T18:36:44;2.47;;;1.40;;
66970;SDS011;53901;51.466;-2.588;2023-04-01T18:38:45;3.80;;;2.20;;
66970;SDS011;53901;51.466;-2.588;2023-04-01T18:43:54;2.90;;;1.80;;
66970;SDS011;53901;51.466;-2.588;2023-04-01T18:46:29;5.40;;;1.80;;
66970;SDS011;53901;51.466;-2.588;2023-04-01T18:51:49;6.13;;;2.70;;
66970;SDS011;53901;51.466;-2.588;2023-04-01T18:57:16;4.53;;;2.33;;
66970;SDS011;53901;51.466;-2.588;2023-04-01T19:02:37;6.78;;;2.80;;
66970;SDS011;53901;51.466;-2.588;2023-04-01T19:10:07;7.00;;;3.35;;
66970;SDS011;53901;51.466;-2.588;2023-04-01T19:15:32;5.15;;;2.63;;
66970;SDS011;53901;51.466;-2.588;2023-04-01T19:18:17;4.57;;;2.00;;
66970;SDS011;53901;51.466;-2.588;2023-04-01T19:24:06;5.10;;;3.45;;
66970;SDS011;53901;51.466;-2.588;2023-04-01T19:35:19;8.85;;;2.70;;
66970;SDS011;53901;51.466;-2.588;2023-04-01T19:38:01;4.38;;;2.13;;
66970;SDS011;53901;51.466;-2.588;2023-04-01T19:46:18;5.47;;;2.40;;
66970;SDS011;53901;51.466;-2.588;2023-04-01T19:51:22;5.53;;;2.78;;
66970;SDS011;53901;51.466;-2.588;2023-04-01T19:54:01;3.75;;;2.17;;
66970;SDS011;53901;51.466;-2.588;2023-04-01T19:56:41;2.60;;;1.50;;
66970;SDS011;53901;51.466;-2.588;2023-04-01T19:59:50;2.45;;;1.35;;
66970;SDS011;53901;51.466;-2.588;2023-04-01T20:05:24;1.75;;;1.20;;
66970;SDS011;53901;51.466;-2.588;2023-04-01T20:16:20;3.15;;;1.73;;
66970;SDS011;53901;51.466;-2.588;2023-04-01T20:18:59;4.18;;;2.45;;
66970;SDS011;53901;51.466;-2.588;2023-04-01T20:21:33;4.88;;;2.55;;
66970;SDS011;53901;51.466;-2.588;2023-04-01T20:24:43;8.48;;;2.47;;
66970;SDS011;53901;51.466;-2.588;2023-04-01T20:27:35;5.13;;;2.13;;
66970;SDS011;53901;51.466;-2.588;2023-04-01T20:29:47;4.20;;;2.15;;
66970;SDS011;53901;51.466;-2.588;2023-04-01T20:35:31;5.18;;;2.10;;
66970;SDS011;53901;51.466;-2.588;2023-04-01T20:38:21;3.50;;;2.08;;
66970;SDS011;53901;51.466;-2.588;2023-04-01T20:41:12;3.08;;;1.92;;
66970;SDS011;53901;51.466;-2.588;2023-04-01T20:49:40;4.30;;;2.50;;
66970;SDS011;53901;51.466;-2.588;2023-04-01T21:12:01;3.28;;;2.22;;
66970;SDS011;53901;51.466;-2.588;2023-04-01T21:20:05;3.95;;;2.30;;
66970;SDS011;53901;51.466;-2.588;2023-04-01T21:33:34;5.65;;;2.33;;
66970;SDS011;53901;51.466;-2.588;2023-04-01T21:39:01;4.72;;;1.88;;
66970;SDS011;53901;51.466;-2.588;2023-04-01T21:41:57;3.78;;;2.25;;
66970;SDS011;53901;51.466;-2.588;2023-04-01T21:50:50;2.50;;;1.80;;
66970;SDS011;53901;51.466;-2.588;2023-04-01T22:06:29;3.85;;;1.77;;
66970;SDS011;53901;51.466;-2.588;2023-04-01T22:09:05;4.40;;;2.35;;
66970;SDS011;53901;51.466;-2.588;2023-04-01T22:17:08;3.03;;;1.95;;
66970;SDS011;53901;51.466;-2.588;2023-04-01T22:19:48;3.33;;;1.95;;
66970;SDS011;53901;51.466;-2.588;2023-04-01T22:22:26;3.00;;;1.90;;
66970;SDS011;53901;51.466;-2.588;2023-04-01T22:25:14;3.25;;;2.08;;
66970;SDS011;53901;51.466;-2.588;2023-04-01T22:27:52;5.22;;;2.00;;
66970;SDS011;53901;51.466;-2.588;2023-04-01T22:30:23;6.97;;;2.00;;
66970;SDS011;53901;51.466;-2.588;2023-04-01T22:35:50;4.88;;;2.10;;
66970;SDS011;53901;51.466;-2.588;2023-04-01T22:47:26;3.78;;;1.85;;
66970;SDS011;53901;51.466;-2.588;2023-04-01T22:50:25;3.42;;;1.98;;
66970;SDS011;53901;51.466;-2.588;2023-04-01T22:52:56;3.50;;;1.95;;
66970;SDS011;53901;51.466;-2.588;2023-04-01T22:55:45;3.25;;;2.10;;
66970;SDS011;53901;51.466;-2.588;2023-04-01T22:58:16;3.97;;;2.00;;
66970;SDS011;53901;51.466;-2.588;2023-04-01T23:00:51;3.80;;;2.10;;
66970;SDS011;53901;51.466;-2.588;2023-04-01T23:05:59;3.35;;;2.10;;
66970;SDS011;53901;51.466;-2.588;2023-04-01T23:11:14;5.20;;;2.33;;
66970;SDS011;53901;51.466;-2.588;2023-04-01T23:14:06;6.35;;;2.70;;
66970;SDS011;53901;51.466;-2.588;2023-04-01T23:16:43;4.47;;;2.30;;
66970;SDS011;53901;51.466;-2.588;2023-04-01T23:19:17;3.40;;;1.98;;
66970;SDS011;53901;51.466;-2.588;2023-04-01T23:21:44;4.38;;;2.35;;
66970;SDS011;53901;51.466;-2.588;2023-04-01T23:27:41;4.32;;;2.33;;
66970;SDS011;53901;51.466;-2.588;2023-04-01T23:33:11;4.05;;;2.50;;
66970;SDS011;53901;51.466;-2.588;2023-04-01T23:38:33;3.70;;;2.40;;
66970;SDS011;53901;51.466;-2.588;2023-04-01T23:41:00;3.22;;;2.33;;
66970;SDS011;53901;51.466;-2.588;2023-04-01T23:43:39;4.82;;;2.60;;
66970;SDS011;53901;51.466;-2.588;2023-04-01T23:46:06;4.05;;;2.63;;
66970;SDS011;53901;51.466;-2.588;2023-04-01T23:48:33;3.55;;;2.45;;
66970;SDS011;53901;51.466;-2.588;2023-04-01T23:51:01;3.95;;;2.60;;
66970;SDS011;53901;51.466;-2.588;2023-04-01T23:53:33;6.57;;;2.50;;
66970;SDS011;53901;51.466;-2.588;2023-04-01T23:55:59;4.18;;;2.50;;
